Pagina principale
METAR-TAF:

METAR-TAF

Aeroporti :

Aeroporto di Berlino-Tegel

Berlino, Germania

latitudine: 52-34N, longitudine: 013-19E, altezza: 37 m

Osservazione

Il bollettino è stato emesso 10 minuti fa, alle 23:20 UTC
Vento 4 kt da sud-est
Temperature 13°C
Umidità 58%
Pressione 1016 hPa
Visibilità 10 km o più
nessuna nube inferiore a 1500 m e nessun cumulonembo

METAR: EDDT 152320Z 14004KT CAVOK 13/05 Q1016

Ora: 01:30 (23:30 UTC)

Previsione

Il bollettino è stato emesso 6 ore e 30 minuti fa, alle 17:00 UTC
Previsione valida dal 15 alle 18 UTC al 16 alle 18 UTC
Vento 3 kt da direzioni variabili
Visibilità 10 km o più
nessuna nube inferiore a 1500 m e nessun cumulonembo

TAF: EDDT 151700Z 1518/1618 VRB03KT CAVOK

Osservazioni e previsioni meteorologiche di più di 4000 aeroporti (messaggi METAR e TAF).

Le stazioni disponibili sono rappresentate dai dischi gialli e rossi sulla carta.

Puntare il mouse per vedere il nome della stazione.

Clicca sopra per visualizzare le osservazioni e previsioni meteorologiche.

Per cambiare la mappa : fare clic sui pulsanti verdi con una croce nera per ingrandire, il pulsante verde con un trattino per diminuire, o sulla freccia verde per le mappe adiacenti.


METAR-TAF: